createdAt,value
2017-09-27T00:00:06.785Z,0
2017-09-27T00:01:08.492Z,0
2017-09-27T00:02:10.187Z,0
2017-09-27T00:03:11.895Z,0
2017-09-27T00:04:13.638Z,0
2017-09-27T00:05:15.428Z,0
2017-09-27T00:06:17.104Z,0
2017-09-27T00:07:18.798Z,0
2017-09-27T00:08:20.490Z,0
2017-09-27T00:09:22.199Z,0
2017-09-27T00:10:23.894Z,0
2017-09-27T00:11:25.603Z,0
2017-09-27T00:12:27.301Z,0
2017-09-27T00:13:29.008Z,0
2017-09-27T00:14:30.737Z,0
2017-09-27T00:15:32.433Z,0
2017-09-27T00:16:34.183Z,0
2017-09-27T00:17:35.878Z,0
2017-09-27T00:18:37.589Z,0
2017-09-27T00:19:39.298Z,0
2017-09-27T00:20:41.026Z,0
2017-09-27T00:21:42.721Z,0
2017-09-27T00:22:44.433Z,0
2017-09-27T00:23:46.134Z,0
2017-09-27T00:24:47.820Z,0
2017-09-27T00:25:49.530Z,0
2017-09-27T00:26:51.252Z,0
2017-09-27T00:27:52.972Z,0
2017-09-27T00:28:54.670Z,0
2017-09-27T00:29:56.396Z,0
2017-09-27T00:30:58.151Z,0
2017-09-27T00:31:59.833Z,0
2017-09-27T00:33:01.573Z,0
2017-09-27T00:34:03.295Z,0
2017-09-27T00:35:05.026Z,0
2017-09-27T00:36:06.727Z,0
2017-09-27T00:37:08.461Z,0
2017-09-27T00:38:10.205Z,0
2017-09-27T00:39:11.910Z,0
2017-09-27T00:40:13.677Z,0
2017-09-27T00:41:15.476Z,0
2017-09-27T00:42:17.160Z,0
2017-09-27T00:43:18.877Z,0
2017-09-27T00:44:20.578Z,0
2017-09-27T00:45:22.283Z,0
2017-09-27T00:46:24.037Z,0
2017-09-27T00:47:25.823Z,0
2017-09-27T00:48:27.515Z,0
2017-09-27T00:49:29.229Z,0
2017-09-27T00:50:30.975Z,0
2017-09-27T00:51:32.699Z,0
2017-09-27T00:52:34.379Z,0
2017-09-27T00:53:36.120Z,0
2017-09-27T00:54:37.825Z,0
2017-09-27T00:55:39.540Z,0
2017-09-27T00:56:41.242Z,0
2017-09-27T00:57:42.958Z,0
2017-09-27T00:58:44.661Z,0
2017-09-27T00:59:46.472Z,0
2017-09-27T01:00:48.192Z,0
2017-09-27T01:01:49.898Z,0
2017-09-27T01:02:51.580Z,0
2017-09-27T01:03:53.264Z,0
2017-09-27T01:04:54.976Z,0
2017-09-27T01:05:56.661Z,0
2017-09-27T01:06:58.411Z,0
2017-09-27T01:08:00.124Z,0
2017-09-27T01:09:01.818Z,0
2017-09-27T01:10:03.556Z,0
2017-09-27T01:11:05.355Z,0
2017-09-27T01:12:07.219Z,0
2017-09-27T01:13:08.877Z,0
2017-09-27T01:14:10.583Z,0
2017-09-27T01:15:12.327Z,0
2017-09-27T01:16:14.079Z,0
2017-09-27T01:17:15.852Z,0
2017-09-27T01:18:17.545Z,0
2017-09-27T01:19:19.250Z,0
2017-09-27T01:20:20.947Z,0
2017-09-27T01:21:22.709Z,0
2017-09-27T01:22:24.405Z,0
2017-09-27T01:23:26.128Z,0
2017-09-27T01:24:27.788Z,0
2017-09-27T01:25:29.493Z,0
2017-09-27T01:26:31.213Z,0
2017-09-27T01:27:32.907Z,0
2017-09-27T01:28:34.641Z,0
2017-09-27T01:29:36.322Z,0
2017-09-27T01:30:38.060Z,0
2017-09-27T01:31:39.787Z,0
2017-09-27T01:32:41.504Z,0
2017-09-27T01:33:43.223Z,0
2017-09-27T01:34:44.947Z,0
2017-09-27T01:35:46.620Z,0
2017-09-27T01:36:48.317Z,0
2017-09-27T01:37:50.052Z,0
2017-09-27T01:38:51.752Z,0
2017-09-27T01:39:53.449Z,0
2017-09-27T01:40:55.154Z,0
2017-09-27T01:41:56.880Z,0
2017-09-27T01:42:58.584Z,0
2017-09-27T01:44:00.279Z,0
2017-09-27T01:45:02.000Z,0
2017-09-27T01:46:03.748Z,0
2017-09-27T01:47:05.704Z,0
2017-09-27T01:48:07.509Z,0
2017-09-27T01:49:09.694Z,0
2017-09-27T01:50:11.323Z,0
2017-09-27T01:51:13.513Z,0
2017-09-27T01:52:15.204Z,0
2017-09-27T01:53:16.941Z,0
2017-09-27T01:54:19.741Z,0
2017-09-27T01:55:21.399Z,0
2017-09-27T01:56:23.093Z,0
2017-09-27T01:57:24.830Z,0
2017-09-27T01:58:27.017Z,0
2017-09-27T01:59:28.727Z,0
2017-09-27T02:00:30.450Z,0
2017-09-27T02:01:32.181Z,0
2017-09-27T02:02:33.918Z,0
2017-09-27T02:03:35.663Z,0
2017-09-27T02:04:37.730Z,0
2017-09-27T02:05:39.452Z,0
2017-09-27T02:06:41.296Z,0
2017-09-27T02:07:42.989Z,0
2017-09-27T02:08:44.687Z,0
2017-09-27T02:09:46.392Z,0
2017-09-27T02:10:48.087Z,0
2017-09-27T02:11:49.770Z,0
2017-09-27T02:12:51.472Z,0
2017-09-27T02:13:53.160Z,0
2017-09-27T02:14:54.870Z,0
2017-09-27T02:15:56.581Z,0
2017-09-27T02:16:58.265Z,0
2017-09-27T02:17:59.968Z,0
2017-09-27T02:19:01.681Z,0
2017-09-27T02:20:03.389Z,0
2017-09-27T02:21:05.881Z,0
2017-09-27T02:22:07.593Z,0
2017-09-27T02:23:09.314Z,0
2017-09-27T02:24:11.091Z,0
2017-09-27T02:25:12.810Z,0
2017-09-27T02:26:14.567Z,0
2017-09-27T02:27:16.278Z,0
2017-09-27T02:28:17.981Z,0
2017-09-27T02:29:19.671Z,0
2017-09-27T02:30:21.348Z,0
2017-09-27T02:31:23.159Z,0
2017-09-27T02:32:24.857Z,0
2017-09-27T02:33:28.859Z,0
2017-09-27T02:34:30.562Z,0
2017-09-27T02:35:32.267Z,0
2017-09-27T02:36:33.995Z,0
2017-09-27T02:37:35.696Z,0
2017-09-27T02:38:37.388Z,0
2017-09-27T02:39:39.084Z,0
2017-09-27T02:40:40.905Z,0
2017-09-27T02:41:42.622Z,0
2017-09-27T02:42:44.357Z,0
2017-09-27T02:43:46.060Z,0
2017-09-27T02:44:47.768Z,0
2017-09-27T02:45:49.485Z,0
2017-09-27T02:46:51.179Z,0
2017-09-27T02:47:52.890Z,0
2017-09-27T02:48:54.605Z,0
2017-09-27T02:49:56.307Z,0
2017-09-27T02:50:58.013Z,0
2017-09-27T02:51:59.730Z,0
2017-09-27T02:53:01.411Z,0
2017-09-27T02:54:03.131Z,0
2017-09-27T02:55:04.825Z,0
2017-09-27T02:56:06.546Z,0
2017-09-27T02:57:08.253Z,0
2017-09-27T02:58:09.976Z,0
2017-09-27T02:59:11.722Z,0
2017-09-27T03:00:13.488Z,0
2017-09-27T03:01:15.204Z,0
2017-09-27T03:02:16.930Z,0
2017-09-27T03:03:18.626Z,0
2017-09-27T03:04:20.339Z,0
2017-09-27T03:05:22.072Z,0
2017-09-27T03:06:23.793Z,0
2017-09-27T03:07:25.511Z,0
2017-09-27T03:08:27.243Z,0
2017-09-27T03:09:28.981Z,0
2017-09-27T03:10:30.673Z,0
2017-09-27T03:11:32.351Z,0
2017-09-27T03:12:34.066Z,0
2017-09-27T03:13:35.754Z,0
2017-09-27T03:14:37.436Z,0
2017-09-27T03:15:39.136Z,0
2017-09-27T03:16:40.844Z,0
2017-09-27T03:17:42.535Z,0
2017-09-27T03:18:44.250Z,0
2017-09-27T03:19:45.944Z,0
2017-09-27T03:20:47.656Z,0
2017-09-27T03:21:49.368Z,0
2017-09-27T03:22:51.105Z,0
2017-09-27T03:23:52.822Z,0
2017-09-27T03:24:54.527Z,0
2017-09-27T03:25:56.213Z,0
2017-09-27T03:26:57.912Z,0
2017-09-27T03:27:59.612Z,0
2017-09-27T03:29:01.308Z,0
2017-09-27T03:30:03.040Z,0
2017-09-27T03:31:04.747Z,0
2017-09-27T03:32:06.477Z,0
2017-09-27T03:33:08.191Z,0
2017-09-27T03:34:09.889Z,0
2017-09-27T03:35:11.606Z,0
2017-09-27T03:36:13.303Z,0
2017-09-27T03:37:14.996Z,0
2017-09-27T03:38:16.680Z,0
2017-09-27T03:39:18.392Z,0
2017-09-27T03:40:20.093Z,0
2017-09-27T03:41:21.788Z,0
2017-09-27T03:42:23.492Z,0
2017-09-27T03:43:25.180Z,0
2017-09-27T03:44:26.881Z,0
2017-09-27T03:45:28.640Z,0
2017-09-27T03:46:30.327Z,0
2017-09-27T03:47:32.015Z,0
2017-09-27T03:48:33.715Z,0
2017-09-27T03:49:35.412Z,0
2017-09-27T03:50:37.112Z,0
2017-09-27T03:51:38.859Z,0
2017-09-27T03:52:40.543Z,0
2017-09-27T03:53:42.243Z,0
2017-09-27T03:54:43.929Z,0
2017-09-27T03:55:45.739Z,0
2017-09-27T03:56:47.440Z,0
2017-09-27T03:57:49.143Z,0
2017-09-27T03:58:50.842Z,0
2017-09-27T03:59:52.524Z,0
2017-09-27T04:00:54.227Z,0
2017-09-27T04:01:55.930Z,0
2017-09-27T04:02:57.639Z,0
2017-09-27T04:03:59.328Z,0
2017-09-27T04:05:01.011Z,0
2017-09-27T04:06:02.718Z,0
2017-09-27T04:07:04.438Z,0
2017-09-27T04:08:06.164Z,0
2017-09-27T04:09:07.839Z,0
2017-09-27T04:10:09.543Z,0
2017-09-27T04:11:11.229Z,0
2017-09-27T04:12:12.959Z,0
2017-09-27T04:13:14.646Z,0
2017-09-27T04:14:16.332Z,0
2017-09-27T04:15:18.109Z,0
2017-09-27T04:16:19.825Z,0
2017-09-27T04:17:21.508Z,0
2017-09-27T04:18:23.245Z,0
2017-09-27T04:19:24.949Z,0
2017-09-27T04:20:26.654Z,0
2017-09-27T04:21:28.357Z,0
2017-09-27T04:22:30.062Z,0
2017-09-27T04:23:31.782Z,0
2017-09-27T04:24:33.490Z,0
2017-09-27T04:25:35.216Z,0
2017-09-27T04:26:36.922Z,0
2017-09-27T04:27:38.665Z,0
2017-09-27T04:28:40.354Z,0
2017-09-27T04:29:42.062Z,0
2017-09-27T04:30:43.763Z,0
2017-09-27T04:31:45.465Z,0
2017-09-27T04:32:47.170Z,0
2017-09-27T04:33:48.887Z,0
2017-09-27T04:34:50.592Z,0
2017-09-27T04:35:52.284Z,0
2017-09-27T04:36:53.994Z,0
2017-09-27T04:37:55.687Z,0
2017-09-27T04:38:57.388Z,0
2017-09-27T04:39:59.080Z,0
2017-09-27T04:41:00.780Z,0
2017-09-27T04:42:02.450Z,0
2017-09-27T04:43:04.172Z,0
2017-09-27T04:44:05.872Z,0
2017-09-27T04:45:07.599Z,0
2017-09-27T04:46:09.334Z,0
2017-09-27T04:47:11.059Z,0
2017-09-27T04:48:12.761Z,0
2017-09-27T04:49:14.461Z,0
2017-09-27T04:50:16.155Z,0
2017-09-27T04:51:17.858Z,0
2017-09-27T04:52:19.578Z,0
2017-09-27T04:53:21.266Z,0
2017-09-27T04:54:22.980Z,0
2017-09-27T04:55:24.667Z,0
2017-09-27T04:56:26.372Z,0
2017-09-27T04:57:28.070Z,0
2017-09-27T04:58:29.767Z,0
2017-09-27T04:59:31.482Z,0
2017-09-27T05:00:33.188Z,0
2017-09-27T05:01:34.903Z,0
2017-09-27T05:02:36.628Z,0
2017-09-27T05:03:38.304Z,0
2017-09-27T05:04:40.013Z,0
2017-09-27T05:05:41.695Z,0
2017-09-27T05:06:43.377Z,0
2017-09-27T05:07:45.096Z,0
2017-09-27T05:08:46.804Z,0
2017-09-27T05:09:48.515Z,0
2017-09-27T05:10:50.191Z,0
2017-09-27T05:11:51.930Z,0
2017-09-27T05:12:53.649Z,0
2017-09-27T05:13:55.370Z,0
2017-09-27T05:14:57.111Z,0
2017-09-27T05:15:58.904Z,0
2017-09-27T05:17:00.601Z,0
2017-09-27T05:18:02.325Z,0
2017-09-27T05:19:04.063Z,0
2017-09-27T05:20:05.826Z,0
2017-09-27T05:21:07.522Z,0
2017-09-27T05:22:09.269Z,0
2017-09-27T05:23:10.995Z,0
2017-09-27T05:24:12.707Z,0
2017-09-27T05:25:14.438Z,0
2017-09-27T05:26:16.151Z,0
2017-09-27T05:27:17.878Z,0
2017-09-27T05:28:19.611Z,0
2017-09-27T05:29:21.296Z,0
2017-09-27T05:30:22.973Z,0
2017-09-27T05:31:24.722Z,0
2017-09-27T05:32:27.225Z,0
2017-09-27T05:33:28.082Z,0
2017-09-27T05:34:29.786Z,0
2017-09-27T05:35:32.457Z,0
2017-09-27T05:36:34.146Z,0
2017-09-27T05:37:35.837Z,0
2017-09-27T05:38:37.549Z,0
2017-09-27T05:39:39.221Z,0
2017-09-27T05:40:40.954Z,0
2017-09-27T05:41:42.633Z,0
2017-09-27T05:42:44.365Z,0
2017-09-27T05:43:46.977Z,0
2017-09-27T05:44:48.683Z,0
2017-09-27T05:45:50.413Z,0
2017-09-27T05:46:52.142Z,0
2017-09-27T05:47:53.868Z,0
2017-09-27T05:48:55.583Z,0
2017-09-27T05:49:57.278Z,0
2017-09-27T05:50:58.980Z,0
2017-09-27T05:52:00.730Z,0
2017-09-27T05:53:02.446Z,0
2017-09-27T05:54:04.140Z,0
2017-09-27T05:55:05.825Z,0
2017-09-27T05:56:07.529Z,0
2017-09-27T05:57:09.232Z,0
2017-09-27T05:58:10.925Z,0
2017-09-27T05:59:12.633Z,0
2017-09-27T06:00:14.316Z,0
2017-09-27T06:01:16.015Z,0
2017-09-27T06:02:17.745Z,0
2017-09-27T06:03:19.500Z,4
2017-09-27T06:04:21.202Z,0
2017-09-27T06:05:22.897Z,4
2017-09-27T06:06:24.604Z,4
2017-09-27T06:07:26.291Z,4
2017-09-27T06:08:27.999Z,4
2017-09-27T06:09:29.694Z,8
2017-09-27T06:10:31.381Z,8
2017-09-27T06:11:33.099Z,12
2017-09-27T06:12:35.462Z,16
2017-09-27T06:13:37.149Z,16
2017-09-27T06:14:38.867Z,20
2017-09-27T06:15:40.594Z,28
2017-09-27T06:16:42.951Z,32
2017-09-27T06:17:44.653Z,40
2017-09-27T06:18:46.355Z,52
2017-09-27T06:19:48.090Z,60
2017-09-27T06:20:49.788Z,72
2017-09-27T06:21:51.503Z,80
2017-09-27T06:22:53.191Z,96
2017-09-27T06:23:54.885Z,108
2017-09-27T06:24:56.568Z,124
2017-09-27T06:25:58.272Z,140
2017-09-27T06:27:01.302Z,152
2017-09-27T06:28:03.017Z,172
2017-09-27T06:29:04.685Z,192
2017-09-27T06:30:06.442Z,212
2017-09-27T06:31:08.152Z,232
2017-09-27T06:32:09.871Z,256
2017-09-27T06:33:11.694Z,280
2017-09-27T06:34:13.397Z,304
2017-09-27T06:35:15.394Z,328
2017-09-27T06:36:17.084Z,360
2017-09-27T06:37:19.479Z,392
2017-09-27T06:38:21.243Z,432
2017-09-27T06:39:22.929Z,472
2017-09-27T06:40:24.641Z,512
2017-09-27T06:41:26.361Z,548
2017-09-27T06:42:28.077Z,584
2017-09-27T06:43:29.764Z,624
2017-09-27T06:44:31.636Z,664
2017-09-27T06:45:33.343Z,696
2017-09-27T06:46:35.059Z,728
2017-09-27T06:47:36.780Z,760
2017-09-27T06:48:38.495Z,796
2017-09-27T06:49:40.213Z,832
2017-09-27T06:50:41.919Z,864
2017-09-27T06:51:43.602Z,896
2017-09-27T06:52:45.315Z,928
2017-09-27T06:53:47.017Z,960
2017-09-27T06:54:48.748Z,996
2017-09-27T06:55:50.541Z,1032
2017-09-27T06:56:52.283Z,1068
2017-09-27T06:57:54.019Z,1104
2017-09-27T06:58:55.750Z,1136
2017-09-27T06:59:57.471Z,1164
2017-09-27T07:00:59.179Z,1200
2017-09-27T07:02:00.916Z,1228
2017-09-27T07:03:02.654Z,1264
2017-09-27T07:04:04.385Z,1296
2017-09-27T07:05:06.075Z,1328
2017-09-27T07:06:07.809Z,1360
2017-09-27T07:07:09.549Z,1388
2017-09-27T07:08:11.255Z,1420
2017-09-27T07:09:12.989Z,1448
2017-09-27T07:10:14.688Z,1476
2017-09-27T07:11:16.428Z,1504
2017-09-27T07:12:18.686Z,1532
2017-09-27T07:13:20.465Z,1564
2017-09-27T07:14:22.188Z,1592
2017-09-27T07:15:23.902Z,1620
2017-09-27T07:16:25.620Z,1644
2017-09-27T07:17:27.342Z,1668
2017-09-27T07:18:29.059Z,1696
2017-09-27T07:19:30.787Z,1724
2017-09-27T07:20:32.519Z,1748
2017-09-27T07:21:34.208Z,1772
2017-09-27T07:22:35.951Z,1796
2017-09-27T07:23:37.686Z,1820
2017-09-27T07:24:39.386Z,1844
2017-09-27T07:25:41.114Z,1868
2017-09-27T07:26:42.800Z,1888
2017-09-27T07:27:44.509Z,1912
2017-09-27T07:28:46.225Z,1936
2017-09-27T07:29:47.933Z,1956
2017-09-27T07:30:49.663Z,1976
2017-09-27T07:31:51.365Z,1996
2017-09-27T07:32:53.811Z,2020
2017-09-27T07:33:55.568Z,2036
2017-09-27T07:34:57.326Z,2056
2017-09-27T07:35:59.082Z,2076
2017-09-27T07:37:00.867Z,2092
2017-09-27T07:38:02.689Z,2116
2017-09-27T07:39:04.402Z,2136
2017-09-27T07:40:06.189Z,2152
2017-09-27T07:41:07.920Z,2168
2017-09-27T07:42:09.670Z,2184
2017-09-27T07:43:11.384Z,2204
2017-09-27T07:44:13.135Z,2220
2017-09-27T07:45:15.509Z,2236
2017-09-27T07:46:17.236Z,2256
2017-09-27T07:47:18.959Z,2272
2017-09-27T07:48:20.744Z,2288
2017-09-27T07:49:22.631Z,2300
2017-09-27T07:50:24.321Z,2312
2017-09-27T07:51:26.086Z,2324
2017-09-27T07:52:27.822Z,2340
2017-09-27T07:53:30.252Z,2352
2017-09-27T07:54:31.801Z,2364
2017-09-27T07:55:33.504Z,2372
2017-09-27T07:56:35.238Z,2368
2017-09-27T07:57:37.498Z,2400
2017-09-27T07:58:39.210Z,2408
2017-09-27T07:59:40.924Z,2416
2017-09-27T08:00:42.695Z,2428
2017-09-27T08:01:44.424Z,2436
2017-09-27T08:02:46.156Z,2448
2017-09-27T08:03:47.857Z,2460
2017-09-27T08:04:49.590Z,2468
2017-09-27T08:05:51.310Z,2484
2017-09-27T08:06:53.065Z,2492
2017-09-27T08:07:54.869Z,2496
2017-09-27T08:08:56.576Z,2512
2017-09-27T08:09:58.403Z,2516
2017-09-27T08:11:00.142Z,2524
2017-09-27T08:12:01.891Z,2532
2017-09-27T08:13:03.652Z,2540
2017-09-27T08:14:05.414Z,2548
2017-09-27T08:15:07.848Z,2556
2017-09-27T08:16:09.551Z,2564
2017-09-27T08:17:11.263Z,2576
2017-09-27T08:18:12.982Z,2584
2017-09-27T08:19:14.835Z,2588
2017-09-27T08:20:16.553Z,2596
2017-09-27T08:21:18.356Z,2608
2017-09-27T08:22:20.085Z,2616
2017-09-27T08:23:21.858Z,2628
2017-09-27T08:24:23.600Z,2644
2017-09-27T08:25:25.314Z,2652
2017-09-27T08:26:27.067Z,2656
2017-09-27T08:27:28.815Z,2664
2017-09-27T08:28:30.547Z,2676
2017-09-27T08:29:32.440Z,2692
2017-09-27T08:30:34.168Z,2700
2017-09-27T08:31:36.031Z,2708
2017-09-27T08:32:37.733Z,2712
2017-09-27T08:33:39.487Z,2728
2017-09-27T08:34:41.247Z,2744
2017-09-27T08:35:42.982Z,2752
2017-09-27T08:36:44.888Z,2760
2017-09-27T08:37:46.777Z,2768
2017-09-27T08:38:48.520Z,2776
2017-09-27T08:39:50.223Z,2788
2017-09-27T08:40:51.946Z,2796
2017-09-27T08:41:53.674Z,2804
2017-09-27T08:42:55.395Z,2812
2017-09-27T08:43:57.113Z,2820
2017-09-27T08:44:58.826Z,2824
2017-09-27T08:46:00.541Z,2832
2017-09-27T08:47:02.785Z,2840
2017-09-27T08:48:04.479Z,2848
2017-09-27T08:49:06.211Z,2856
2017-09-27T08:50:07.923Z,2864
2017-09-27T08:51:09.651Z,2872
2017-09-27T08:52:11.383Z,2876
2017-09-27T08:53:13.105Z,2884
2017-09-27T08:54:14.841Z,2896
2017-09-27T08:55:16.559Z,2908
2017-09-27T08:56:18.285Z,2908
2017-09-27T08:57:19.992Z,2912
2017-09-27T08:58:21.835Z,2916
2017-09-27T08:59:23.565Z,2924
2017-09-27T09:00:25.275Z,2932
2017-09-27T09:01:26.990Z,2936
2017-09-27T09:02:28.706Z,2928
2017-09-27T09:03:30.415Z,2948
2017-09-27T09:04:32.172Z,2952
2017-09-27T09:05:33.893Z,2964
2017-09-27T09:06:35.639Z,2976
2017-09-27T09:07:37.330Z,2992
2017-09-27T09:08:39.034Z,3000
2017-09-27T09:09:40.776Z,3000
2017-09-27T09:10:42.534Z,3016
2017-09-27T09:11:44.258Z,3068
2017-09-27T09:12:45.972Z,3072
2017-09-27T09:13:47.683Z,3084
2017-09-27T09:14:49.399Z,3092
2017-09-27T09:15:51.115Z,3120
2017-09-27T09:16:52.809Z,3068
2017-09-27T09:17:54.525Z,3080
2017-09-27T09:18:56.256Z,3080
2017-09-27T09:19:57.990Z,3088
2017-09-27T09:20:59.683Z,3100
2017-09-27T09:22:01.402Z,3120
2017-09-27T09:23:03.111Z,3136
2017-09-27T09:24:04.832Z,3148
2017-09-27T09:25:06.555Z,3156
2017-09-27T09:26:08.294Z,3160
2017-09-27T09:27:09.995Z,3176
2017-09-27T09:28:11.734Z,3188
2017-09-27T09:29:13.456Z,3196
2017-09-27T09:30:15.184Z,3208
2017-09-27T09:31:16.902Z,3224
2017-09-27T09:32:18.612Z,3240
2017-09-27T09:33:20.311Z,3256
2017-09-27T09:34:22.033Z,3272
2017-09-27T09:35:23.767Z,3288
2017-09-27T09:36:25.503Z,3304
2017-09-27T09:37:27.198Z,3332
2017-09-27T09:38:28.940Z,3352
2017-09-27T09:39:30.686Z,3368
2017-09-27T09:40:32.394Z,3340
2017-09-27T09:41:34.115Z,3380
2017-09-27T09:42:35.868Z,3376
2017-09-27T09:43:37.581Z,3360
2017-09-27T09:44:39.293Z,3360
2017-09-27T09:45:40.994Z,3372
2017-09-27T09:46:42.734Z,3360
2017-09-27T09:47:44.434Z,3400
2017-09-27T09:48:46.154Z,3392
2017-09-27T09:49:47.913Z,3408
2017-09-27T09:50:49.640Z,3372
2017-09-27T09:51:51.370Z,3424
2017-09-27T09:52:53.110Z,3464
2017-09-27T09:53:54.840Z,3520
2017-09-27T09:54:56.583Z,3528
2017-09-27T09:55:58.309Z,3532
2017-09-27T09:57:00.001Z,3536
2017-09-27T09:58:01.723Z,3540
2017-09-27T09:59:03.474Z,3540
2017-09-27T10:00:05.219Z,3536
2017-09-27T10:01:06.986Z,3576
2017-09-27T10:02:08.698Z,3592
2017-09-27T10:03:10.428Z,3612
2017-09-27T10:04:12.147Z,3616
2017-09-27T10:05:13.906Z,3624
2017-09-27T10:06:15.654Z,3636
2017-09-27T10:07:17.402Z,3644
2017-09-27T10:08:19.107Z,3664
2017-09-27T10:09:20.846Z,3692
2017-09-27T10:10:22.623Z,3716
2017-09-27T10:11:24.341Z,3744
2017-09-27T10:12:26.098Z,3776
2017-09-27T10:13:27.841Z,3792
2017-09-27T10:14:29.572Z,3816
2017-09-27T10:15:31.290Z,3840
2017-09-27T10:16:33.004Z,3864
2017-09-27T10:17:34.715Z,3896
2017-09-27T10:18:36.471Z,3920
2017-09-27T10:19:38.298Z,3940
2017-09-27T10:20:40.031Z,3952
2017-09-27T10:21:41.760Z,3952
2017-09-27T10:22:43.514Z,3908
2017-09-27T10:23:45.253Z,3868
2017-09-27T10:24:46.962Z,3816
2017-09-27T10:25:48.695Z,3808
2017-09-27T10:26:50.434Z,3880
2017-09-27T10:27:52.146Z,3928
2017-09-27T10:28:53.896Z,3984
2017-09-27T10:29:55.627Z,3984
2017-09-27T10:30:57.360Z,4056
2017-09-27T10:31:59.086Z,4112
2017-09-27T10:33:00.800Z,4140
2017-09-27T10:34:02.522Z,4236
2017-09-27T10:35:04.252Z,4220
2017-09-27T10:36:05.985Z,4248
2017-09-27T10:37:07.733Z,4272
2017-09-27T10:38:09.465Z,4296
2017-09-27T10:39:11.174Z,4320
2017-09-27T10:40:12.933Z,4344
2017-09-27T10:41:14.649Z,4372
2017-09-27T10:42:16.383Z,4428
2017-09-27T10:43:18.119Z,4524
2017-09-27T10:44:19.829Z,4672
2017-09-27T10:45:21.552Z,4864
2017-09-27T10:46:23.275Z,5044
2017-09-27T10:47:24.989Z,5180
2017-09-27T10:48:27.526Z,5292
2017-09-27T10:49:29.243Z,6156
2017-09-27T10:50:30.968Z,12492
2017-09-27T10:51:32.688Z,32576
2017-09-27T10:52:34.427Z,46272
2017-09-27T10:53:36.143Z,47296
2017-09-27T10:54:37.865Z,47744
2017-09-27T10:55:39.620Z,49888
2017-09-27T10:56:41.330Z,52128
2017-09-27T10:57:43.044Z,53376
2017-09-27T10:58:44.737Z,51680
2017-09-27T10:59:46.468Z,46464
2017-09-27T11:00:48.190Z,42528
2017-09-27T11:01:49.913Z,41120
2017-09-27T11:02:51.628Z,40704
2017-09-27T11:03:53.375Z,40384
2017-09-27T11:04:55.084Z,41504
2017-09-27T11:05:56.821Z,41888
2017-09-27T11:06:58.581Z,40832
2017-09-27T11:08:00.304Z,40864
2017-09-27T11:09:02.094Z,41472
2017-09-27T11:10:03.843Z,41664
2017-09-27T11:11:05.574Z,41504
2017-09-27T11:12:07.319Z,40128
2017-09-27T11:13:09.066Z,36864
2017-09-27T11:14:10.801Z,34464
2017-09-27T11:15:12.586Z,33088
2017-09-27T11:16:14.304Z,32096
2017-09-27T11:17:16.055Z,31296
2017-09-27T11:18:17.806Z,30592
2017-09-27T11:19:19.562Z,29952
2017-09-27T11:20:21.368Z,29376
2017-09-27T11:21:23.128Z,28736
2017-09-27T11:22:24.883Z,28320
2017-09-27T11:23:26.614Z,27968
2017-09-27T11:24:28.405Z,27680
2017-09-27T11:25:30.183Z,26912
2017-09-27T11:26:31.936Z,26624
2017-09-27T11:27:33.669Z,26080
2017-09-27T11:28:35.411Z,27424
2017-09-27T11:29:37.167Z,27488
2017-09-27T11:30:38.920Z,27456
2017-09-27T11:31:40.669Z,27008
2017-09-27T11:32:42.425Z,26432
2017-09-27T11:33:44.196Z,25984
2017-09-27T11:34:45.927Z,24640
2017-09-27T11:35:47.649Z,25632
2017-09-27T11:36:49.372Z,26112
2017-09-27T11:37:51.118Z,26144
2017-09-27T11:38:52.867Z,26208
2017-09-27T11:39:54.623Z,26304
2017-09-27T11:40:56.370Z,26336
2017-09-27T11:41:58.135Z,26336
2017-09-27T11:42:59.901Z,26528
2017-09-27T11:44:01.760Z,26688
2017-09-27T11:45:03.474Z,26624
2017-09-27T11:46:05.234Z,26720
2017-09-27T11:47:07.028Z,26944
2017-09-27T11:48:08.880Z,27168
2017-09-27T11:49:10.719Z,27424
2017-09-27T11:50:12.477Z,27552
2017-09-27T11:51:14.259Z,27840
2017-09-27T11:52:15.963Z,32704
2017-09-27T11:53:17.721Z,41568
2017-09-27T11:54:19.468Z,48800
2017-09-27T11:55:21.248Z,52128
2017-09-27T11:56:23.089Z,56224
2017-09-27T11:57:24.834Z,58688
2017-09-27T11:58:26.585Z,61376
2017-09-27T11:59:28.322Z,64704
2017-09-27T12:00:30.125Z,63904
2017-09-27T12:01:31.861Z,63520
2017-09-27T12:02:33.592Z,65728
2017-09-27T12:03:35.375Z,83616
2017-09-27T12:04:37.099Z,99744
2017-09-27T12:05:38.849Z,69088
2017-09-27T12:06:40.586Z,55904
2017-09-27T12:07:42.336Z,54656
2017-09-27T12:08:44.106Z,54208
2017-09-27T12:09:45.864Z,55552
2017-09-27T12:10:48.583Z,54880
2017-09-27T12:11:50.326Z,54176
2017-09-27T12:12:52.068Z,55808
2017-09-27T12:13:53.875Z,55712
2017-09-27T12:14:55.620Z,52704
2017-09-27T12:15:57.357Z,53568
2017-09-27T12:16:59.266Z,54432
2017-09-27T12:18:01.043Z,51936
2017-09-27T12:19:02.759Z,54688
2017-09-27T12:20:04.518Z,54784
2017-09-27T12:21:06.246Z,54496
2017-09-27T12:22:08.013Z,52704
2017-09-27T12:23:09.772Z,52992
2017-09-27T12:24:11.505Z,55040
2017-09-27T12:25:13.241Z,55776
2017-09-27T12:26:14.961Z,53792
2017-09-27T12:27:16.724Z,53056
2017-09-27T12:28:18.494Z,52800
2017-09-27T12:29:20.249Z,53440
2017-09-27T12:30:21.977Z,53184
2017-09-27T12:31:23.708Z,52608
2017-09-27T12:32:25.440Z,53248
2017-09-27T12:33:27.194Z,51904
2017-09-27T12:34:28.926Z,40512
2017-09-27T12:35:30.677Z,33280
2017-09-27T12:36:32.407Z,33600
2017-09-27T12:37:34.164Z,33408
2017-09-27T12:38:35.917Z,33504
2017-09-27T12:39:37.665Z,33440
2017-09-27T12:40:39.397Z,31968
2017-09-27T12:41:41.157Z,30912
2017-09-27T12:42:42.898Z,30816
2017-09-27T12:43:44.656Z,30720
2017-09-27T12:44:46.396Z,30720
2017-09-27T12:45:48.129Z,30752
2017-09-27T12:46:49.892Z,30656
2017-09-27T12:47:51.633Z,30816
2017-09-27T12:48:53.359Z,30848
2017-09-27T12:49:55.113Z,30656
2017-09-27T12:50:56.861Z,30592
2017-09-27T12:51:58.598Z,30720
2017-09-27T12:53:00.315Z,30688
2017-09-27T12:54:02.023Z,30368
2017-09-27T12:55:03.755Z,29824
2017-09-27T12:56:05.486Z,28544
2017-09-27T12:57:07.212Z,26912
2017-09-27T12:58:08.965Z,25312
2017-09-27T12:59:10.709Z,24288
2017-09-27T13:00:12.448Z,23232
2017-09-27T13:01:14.164Z,22464
2017-09-27T13:02:15.897Z,21472
2017-09-27T13:03:17.636Z,20736
2017-09-27T13:04:19.379Z,20224
2017-09-27T13:05:21.149Z,19616
2017-09-27T13:06:22.881Z,19168
2017-09-27T13:07:24.619Z,18848
2017-09-27T13:08:26.357Z,18432
2017-09-27T13:09:28.130Z,18208
2017-09-27T13:10:29.889Z,17952
2017-09-27T13:11:31.613Z,17792
2017-09-27T13:12:33.334Z,17472
2017-09-27T13:13:35.054Z,17344
2017-09-27T13:14:36.759Z,17088
2017-09-27T13:15:39.081Z,16896
2017-09-27T13:16:40.805Z,16672
2017-09-27T13:17:42.543Z,16448
2017-09-27T13:18:44.255Z,16320
2017-09-27T13:19:45.979Z,16192
2017-09-27T13:20:47.712Z,16128
2017-09-27T13:21:49.446Z,16032
2017-09-27T13:22:51.178Z,15872
2017-09-27T13:23:52.917Z,15564
2017-09-27T13:24:54.675Z,15480
2017-09-27T13:25:56.536Z,15328
2017-09-27T13:26:58.280Z,15240
2017-09-27T13:28:00.026Z,15104
2017-09-27T13:29:01.780Z,14996
2017-09-27T13:30:03.521Z,14876
2017-09-27T13:31:05.233Z,14828
2017-09-27T13:32:06.943Z,14724
2017-09-27T13:33:08.646Z,14680
2017-09-27T13:34:10.378Z,14580
2017-09-27T13:35:12.107Z,14440
2017-09-27T13:36:13.807Z,14332
2017-09-27T13:37:15.551Z,14244
2017-09-27T13:38:17.280Z,14192
2017-09-27T13:39:18.998Z,14216
2017-09-27T13:40:20.731Z,14176
2017-09-27T13:41:22.453Z,14128
2017-09-27T13:42:24.160Z,14072
2017-09-27T13:43:25.891Z,14124
2017-09-27T13:44:27.643Z,14188
2017-09-27T13:45:29.423Z,14280
2017-09-27T13:46:31.130Z,14420
2017-09-27T13:47:32.862Z,14684
2017-09-27T13:48:34.576Z,14716
2017-09-27T13:49:36.290Z,14864
2017-09-27T13:50:38.014Z,14848
2017-09-27T13:51:39.740Z,15000
2017-09-27T13:52:41.473Z,16064
2017-09-27T13:53:43.196Z,50272
2017-09-27T13:54:44.925Z,87424
2017-09-27T13:55:46.697Z,86272
2017-09-27T13:56:48.435Z,85216
2017-09-27T13:57:50.169Z,84384
2017-09-27T13:58:51.886Z,86048
2017-09-27T13:59:53.608Z,86880
2017-09-27T14:00:56.130Z,89248
2017-09-27T14:01:57.842Z,90432
2017-09-27T14:02:59.566Z,86624
2017-09-27T14:04:01.295Z,85856
2017-09-27T14:05:03.015Z,77088
2017-09-27T14:06:04.727Z,45184
2017-09-27T14:07:06.459Z,19840
2017-09-27T14:08:08.221Z,17600
2017-09-27T14:09:09.937Z,16256
2017-09-27T14:10:11.661Z,15280
2017-09-27T14:11:13.410Z,14304
2017-09-27T14:12:15.161Z,13596
2017-09-27T14:13:16.905Z,13440